Time;durP1;ratioP1;P1;durP2;ratioP2;P2;SDS_P1;SDS_P2;PMS_P1;PMS_P2;Temp;Humidity;BMP_temperature;BMP_pressure;BME280_temperature;BME280_humidity;BME280_pressure;Samples;Min_cycle;Max_cycle;Signal;HPM_P1;HPM_P2
2021/12/27 00:00:32;;;;;;;2.47;1.80;;;18.20;42.10;;;;;;5058869;28;20197;-24
2021/12/27 00:03:00;;;;;;;1.70;1.60;;;18.10;42.10;;;;;;5057022;28;20188;-23
2021/12/27 00:05:26;;;;;;;3.23;1.80;;;18.00;42.20;;;;;;5057008;28;20197;-23
2021/12/27 00:07:54;;;;;;;1.87;1.70;;;18.00;42.30;;;;;;5057054;28;20183;-24
2021/12/27 00:10:21;;;;;;;1.67;1.57;;;17.90;42.30;;;;;;5056701;28;20195;-22
2021/12/27 00:12:48;;;;;;;1.70;1.50;;;17.90;42.30;;;;;;5056953;28;20226;-24
2021/12/27 00:15:14;;;;;;;1.97;1.67;;;17.80;42.40;;;;;;5056308;28;20198;-25
2021/12/27 00:17:42;;;;;;;1.80;1.70;;;17.80;42.50;;;;;;5056431;28;20202;-23
2021/12/27 00:20:11;;;;;;;2.17;1.63;;;17.80;42.60;;;;;;5056997;28;20590;-23
2021/12/27 00:22:37;;;;;;;1.60;1.50;;;17.80;42.60;;;;;;5057926;28;20188;-24
2021/12/27 00:25:04;;;;;;;1.77;1.57;;;17.80;42.60;;;;;;5057294;28;20270;-23
2021/12/27 00:27:30;;;;;;;1.60;1.50;;;17.80;42.50;;;;;;5057037;28;20182;-22
2021/12/27 00:29:56;;;;;;;1.60;1.50;;;17.90;42.60;;;;;;5057358;28;20257;-25
2021/12/27 00:32:21;;;;;;;1.73;1.50;;;17.90;42.50;;;;;;5057891;28;20245;-25
2021/12/27 00:34:48;;;;;;;2.30;1.50;;;17.90;42.50;;;;;;5056248;28;20252;-24
2021/12/27 00:37:14;;;;;;;2.00;1.40;;;17.90;42.50;;;;;;5056415;28;20293;-26
2021/12/27 00:39:40;;;;;;;1.50;1.40;;;18.00;42.50;;;;;;5055994;28;20311;-25
2021/12/27 00:42:06;;;;;;;1.60;1.50;;;18.00;42.40;;;;;;5057147;28;20289;-24
2021/12/27 00:44:33;;;;;;;1.53;1.43;;;18.10;42.40;;;;;;5056204;28;20280;-24
2021/12/27 00:46:59;;;;;;;1.67;1.43;;;18.10;42.30;;;;;;5057446;28;20205;-25
2021/12/27 00:49:25;;;;;;;1.50;1.40;;;18.10;42.30;;;;;;5057228;28;20508;-22
2021/12/27 00:51:51;;;;;;;1.93;1.37;;;18.10;42.30;;;;;;5055535;28;20261;-26
2021/12/27 00:54:17;;;;;;;1.47;1.37;;;18.10;42.70;;;;;;5056588;28;20201;-25
2021/12/27 00:56:43;;;;;;;1.70;1.57;;;18.10;42.30;;;;;;5057105;28;20620;-26
2021/12/27 00:59:08;;;;;;;1.47;1.37;;;18.10;42.40;;;;;;5056403;28;20213;-25
2021/12/27 01:01:34;;;;;;;1.60;1.50;;;18.10;42.40;;;;;;5056546;28;20258;-24
2021/12/27 01:04:00;;;;;;;1.43;1.33;;;18.10;42.40;;;;;;5057354;28;20189;-24
2021/12/27 01:06:26;;;;;;;1.40;1.30;;;18.10;42.40;;;;;;5056755;28;20258;-23
2021/12/27 01:08:53;;;;;;;1.40;1.30;;;18.10;42.40;;;;;;5056783;28;20195;-24
2021/12/27 01:14:13;;;;;;;1.40;1.30;;;18.00;42.40;;;;;;5056772;28;20274;-22
2021/12/27 01:16:41;;;;;;;1.57;1.40;;;18.00;42.40;;;;;;5055676;28;20301;-23
2021/12/27 01:19:07;;;;;;;1.80;1.40;;;18.00;42.50;;;;;;5055335;28;20212;-24
2021/12/27 01:21:33;;;;;;;1.60;1.50;;;17.90;42.50;;;;;;5056946;28;20191;-25
2021/12/27 01:23:59;;;;;;;1.53;1.33;;;17.90;42.60;;;;;;5055628;28;20273;-24
2021/12/27 01:26:25;;;;;;;1.97;1.40;;;18.00;42.60;;;;;;5058427;28;20204;-24
2021/12/27 01:28:53;;;;;;;1.30;1.20;;;17.90;42.50;;;;;;5059401;28;20555;-26
2021/12/27 01:31:19;;;;;;;1.50;1.30;;;18.00;42.60;;;;;;5059343;28;20207;-27
2021/12/27 01:33:49;;;;;;;1.47;1.30;;;17.90;42.60;;;;;;5059298;28;20493;-23
2021/12/27 01:36:15;;;;;;;1.30;1.20;;;17.90;42.60;;;;;;5059407;28;20570;-23
2021/12/27 01:38:42;;;;;;;1.87;1.40;;;17.80;42.60;;;;;;5060197;28;20707;-25
2021/12/27 01:41:11;;;;;;;1.20;1.10;;;17.80;42.70;;;;;;5060005;28;20237;-24
2021/12/27 01:43:39;;;;;;;1.40;1.30;;;17.80;42.70;;;;;;5059490;28;20280;-23
2021/12/27 01:46:08;;;;;;;1.87;1.43;;;17.80;42.80;;;;;;5060393;28;20499;-24
2021/12/27 01:48:38;;;;;;;1.30;1.17;;;17.80;42.80;;;;;;5059949;28;20190;-24
2021/12/27 01:51:10;;;;;;;1.47;1.37;;;17.70;42.70;;;;;;5059264;28;20201;-24
2021/12/27 01:53:37;;;;;;;1.60;1.20;;;17.70;42.80;;;;;;5054045;28;20241;-24
2021/12/27 01:56:04;;;;;;;1.37;1.27;;;17.70;42.80;;;;;;5058759;28;20207;-24
2021/12/27 01:58:31;;;;;;;1.23;1.13;;;17.70;42.80;;;;;;5060223;28;20253;-24
2021/12/27 02:00:59;;;;;;;1.40;1.30;;;17.60;42.90;;;;;;5058692;28;20211;-25
2021/12/27 02:03:30;;;;;;;1.30;1.20;;;17.60;42.90;;;;;;5059503;28;20183;-22
2021/12/27 02:05:56;;;;;;;1.20;1.10;;;17.60;42.90;;;;;;5058929;28;20235;-24
2021/12/27 02:08:22;;;;;;;1.20;1.10;;;17.60;43.00;;;;;;5058809;28;20199;-23
2021/12/27 02:10:53;;;;;;;1.50;1.40;;;17.60;43.00;;;;;;5059995;28;20200;-25
2021/12/27 02:13:19;;;;;;;1.20;1.10;;;17.60;43.00;;;;;;5060351;28;20222;-22
2021/12/27 02:15:46;;;;;;;1.30;1.20;;;17.50;43.10;;;;;;5059190;28;20201;-25
2021/12/27 02:18:12;;;;;;;1.40;1.30;;;17.50;43.10;;;;;;5059049;28;20206;-24
2021/12/27 02:20:40;;;;;;;1.40;1.20;;;17.50;43.10;;;;;;5058888;28;20178;-24
2021/12/27 02:23:14;;;;;;;1.30;1.20;;;17.40;43.10;;;;;;5059193;28;20204;-25
2021/12/27 02:25:40;;;;;;;1.30;1.20;;;17.50;43.20;;;;;;5058536;28;20191;-24
2021/12/27 02:28:08;;;;;;;1.30;1.20;;;17.40;43.20;;;;;;5058445;28;20230;-22
2021/12/27 02:30:34;;;;;;;1.87;1.30;;;17.40;43.30;;;;;;5059357;28;20200;-24
2021/12/27 02:33:05;;;;;;;1.80;1.20;;;17.40;43.30;;;;;;5058983;28;20223;-23
2021/12/27 02:35:34;;;;;;;1.30;1.20;;;17.30;43.30;;;;;;5058328;28;20256;-22
2021/12/27 02:38:01;;;;;;;1.30;1.20;;;17.30;43.30;;;;;;5058787;28;20253;-23
2021/12/27 02:40:29;;;;;;;1.13;1.10;;;17.40;43.40;;;;;;5059060;28;20199;-22
2021/12/27 02:43:10;;;;;;;1.13;1.03;;;17.30;43.30;;;;;;5058357;28;20288;-24
2021/12/27 02:45:52;;;;;;;1.13;1.03;;;17.30;43.40;;;;;;5059185;28;20235;-24
2021/12/27 02:48:20;;;;;;;0.90;0.90;;;17.30;43.40;;;;;;5058550;28;20195;-23
2021/12/27 02:50:47;;;;;;;1.17;1.07;;;17.30;43.40;;;;;;5058017;28;20208;-23
2021/12/27 02:53:15;;;;;;;1.20;1.10;;;17.30;43.40;;;;;;5057638;28;20216;-27
2021/12/27 02:55:41;;;;;;;1.10;0.97;;;17.40;43.40;;;;;;5059631;28;20205;-25
2021/12/27 02:58:08;;;;;;;1.30;1.20;;;17.40;43.40;;;;;;5057998;28;20786;-25
2021/12/27 03:00:38;;;;;;;1.77;1.30;;;17.30;43.40;;;;;;5058875;28;20683;-23
2021/12/27 03:03:03;;;;;;;1.33;1.23;;;17.40;43.40;;;;;;5057867;28;20593;-24
2021/12/27 03:05:30;;;;;;;1.50;1.20;;;17.40;43.40;;;;;;5059045;28;20271;-22
2021/12/27 03:07:58;;;;;;;1.40;1.20;;;17.30;43.40;;;;;;5058276;28;20258;-22
2021/12/27 03:10:27;;;;;;;1.00;1.00;;;17.30;43.40;;;;;;5058084;28;20325;-24
2021/12/27 03:12:54;;;;;;;1.27;1.17;;;17.30;43.40;;;;;;5058515;28;20216;-24
2021/12/27 03:15:23;;;;;;;1.20;1.10;;;17.30;43.40;;;;;;5058176;28;20200;-21
2021/12/27 03:17:51;;;;;;;1.10;1.00;;;17.30;43.50;;;;;;5058199;28;20203;-25
2021/12/27 03:20:18;;;;;;;1.10;1.00;;;17.20;43.50;;;;;;5058813;28;20200;-26
2021/12/27 03:22:45;;;;;;;0.90;0.90;;;17.20;43.50;;;;;;5057180;28;20199;-23
2021/12/27 03:25:17;;;;;;;0.97;0.97;;;17.20;43.50;;;;;;5057936;28;20199;-21
2021/12/27 03:27:43;;;;;;;0.90;0.90;;;17.20;43.50;;;;;;5057674;28;20287;-22
2021/12/27 03:30:14;;;;;;;1.00;0.90;;;17.20;43.60;;;;;;5058085;28;20211;-24
2021/12/27 03:32:40;;;;;;;1.20;1.07;;;17.20;43.60;;;;;;5057860;28;20202;-24
2021/12/27 03:35:14;;;;;;;0.87;0.87;;;17.20;43.60;;;;;;5057788;28;20196;-26
2021/12/27 03:37:43;;;;;;;0.87;0.87;;;17.10;43.60;;;;;;5058133;28;20188;-23
2021/12/27 03:40:11;;;;;;;1.73;0.90;;;17.10;43.70;;;;;;5057213;28;20187;-25
2021/12/27 03:42:37;;;;;;;2.50;0.80;;;17.00;43.80;;;;;;5058364;28;20668;-24
2021/12/27 03:45:04;;;;;;;1.10;1.00;;;16.90;43.80;;;;;;5057044;28;20248;-25
2021/12/27 03:47:36;;;;;;;1.20;1.00;;;16.90;43.80;;;;;;5057592;28;20194;-24
2021/12/27 03:50:03;;;;;;;1.00;1.00;;;16.90;44.00;;;;;;5056933;28;20207;-21
2021/12/27 03:52:29;;;;;;;1.13;1.03;;;16.80;44.00;;;;;;5058852;28;20235;-24
2021/12/27 03:54:54;;;;;;;1.33;1.20;;;16.70;44.00;;;;;;5058263;28;20591;-27
2021/12/27 03:57:27;;;;;;;1.10;1.00;;;16.70;44.10;;;;;;5057894;28;20159;-23
2021/12/27 04:00:15;;;;;;;1.03;0.93;;;16.70;44.10;;;;;;5057889;28;20184;-24
2021/12/27 04:02:41;;;;;;;1.40;1.03;;;16.70;44.20;;;;;;5057371;28;20814;-24
2021/12/27 04:05:10;;;;;;;1.03;1.00;;;16.60;44.20;;;;;;5057035;28;20274;-23
2021/12/27 04:07:40;;;;;;;1.97;1.07;;;17.20;44.30;;;;;;5056993;28;20184;-23
2021/12/27 04:10:09;;;;;;;1.10;1.00;;;19.90;42.00;;;;;;5057586;28;20278;-22
2021/12/27 04:12:35;;;;;;;0.90;0.90;;;20.50;40.50;;;;;;5056864;28;20221;-23
2021/12/27 04:15:02;;;;;;;0.90;0.90;;;20.80;40.00;;;;;;5057867;28;20262;-24
2021/12/27 04:17:28;;;;;;;1.00;0.90;;;21.20;39.60;;;;;;5057749;28;20195;-24
2021/12/27 04:19:54;;;;;;;1.10;1.00;;;21.40;39.30;;;;;;5057366;28;20196;-25
2021/12/27 04:22:20;;;;;;;1.20;1.10;;;21.90;39.00;;;;;;5056420;28;20194;-23
2021/12/27 04:24:45;;;;;;;0.83;0.83;;;22.20;38.70;;;;;;5058119;28;20189;-22
2021/12/27 04:27:11;;;;;;;0.80;0.80;;;22.40;38.50;;;;;;5056336;28;20477;-24
2021/12/27 04:29:37;;;;;;;0.93;0.93;;;22.40;38.30;;;;;;5056331;28;20189;-23
2021/12/27 04:32:03;;;;;;;1.10;1.00;;;22.50;38.30;;;;;;5055863;28;20199;-23
2021/12/27 04:34:29;;;;;;;0.97;0.90;;;22.40;38.40;;;;;;5056716;28;20203;-27
2021/12/27 04:36:54;;;;;;;1.00;0.90;;;22.50;38.40;;;;;;5057577;28;20201;-26
2021/12/27 04:39:20;;;;;;;1.03;0.90;;;22.80;38.20;;;;;;5055752;28;20195;-24
2021/12/27 04:41:46;;;;;;;1.27;1.10;;;23.00;38.10;;;;;;5056650;28;20206;-24
2021/12/27 04:44:12;;;;;;;0.83;0.83;;;23.10;37.90;;;;;;5057675;28;20203;-22
2021/12/27 04:46:40;;;;;;;0.87;0.87;;;23.20;37.90;;;;;;5056997;28;20614;-23
2021/12/27 04:49:05;;;;;;;0.90;0.90;;;23.10;37.90;;;;;;5056313;28;20166;-22
2021/12/27 04:51:31;;;;;;;0.90;0.90;;;23.00;38.00;;;;;;5056460;28;20305;-24
2021/12/27 04:53:57;;;;;;;0.77;0.77;;;23.00;38.10;;;;;;5056994;28;20211;-27
2021/12/27 04:56:23;;;;;;;0.90;0.90;;;23.20;38.10;;;;;;5055797;28;20196;-25
2021/12/27 04:58:49;;;;;;;0.90;0.90;;;23.50;37.90;;;;;;5057088;28;20250;-22
2021/12/27 05:01:16;;;;;;;1.67;0.90;;;23.60;37.70;;;;;;5055829;28;20268;-24
2021/12/27 05:03:42;;;;;;;1.00;0.90;;;23.80;37.60;;;;;;5056917;28;20213;-24
2021/12/27 05:06:08;;;;;;;0.70;0.70;;;23.80;37.50;;;;;;5055808;28;20192;-24
2021/12/27 05:08:33;;;;;;;0.80;0.80;;;23.70;37.60;;;;;;5056858;28;20211;-24
2021/12/27 05:10:59;;;;;;;0.77;0.77;;;23.60;37.70;;;;;;5056252;28;20196;-24
2021/12/27 05:13:25;;;;;;;0.83;0.83;;;23.30;38.00;;;;;;5057428;28;20315;-25
2021/12/27 05:15:51;;;;;;;0.80;0.80;;;23.20;38.10;;;;;;5056518;28;20218;-24
2021/12/27 05:18:17;;;;;;;0.80;0.80;;;23.00;38.30;;;;;;5056383;28;20489;-26
2021/12/27 05:20:43;;;;;;;0.90;0.90;;;22.80;38.50;;;;;;5056697;28;20160;-22
2021/12/27 05:23:09;;;;;;;0.70;0.70;;;22.50;38.80;;;;;;5056746;28;20191;-24
2021/12/27 05:25:35;;;;;;;1.03;0.93;;;22.30;39.00;;;;;;5056706;28;20201;-24
2021/12/27 05:28:01;;;;;;;0.70;0.70;;;22.10;39.20;;;;;;5056189;28;20262;-21
2021/12/27 05:30:26;;;;;;;1.10;1.00;;;21.90;39.50;;;;;;5056411;28;20245;-24
2021/12/27 05:32:52;;;;;;;0.90;0.90;;;21.50;39.70;;;;;;5056997;28;20230;-23
2021/12/27 05:35:18;;;;;;;0.90;0.90;;;21.30;40.00;;;;;;5056876;28;20190;-25
2021/12/27 05:37:44;;;;;;;0.80;0.80;;;21.00;40.30;;;;;;5055365;28;20531;-24
2021/12/27 05:40:15;;;;;;;1.47;0.80;;;20.80;40.60;;;;;;5056633;28;20630;-24
2021/12/27 05:42:40;;;;;;;0.87;0.87;;;20.60;40.90;;;;;;5056385;28;20226;-23
2021/12/27 05:45:07;;;;;;;0.80;0.80;;;20.40;41.10;;;;;;5055986;28;20229;-24
2021/12/27 05:47:33;;;;;;;0.80;0.77;;;20.30;41.20;;;;;;5056333;28;20277;-24
2021/12/27 05:49:59;;;;;;;0.80;0.80;;;20.10;41.40;;;;;;5055724;28;20266;-24
2021/12/27 05:52:24;;;;;;;0.70;0.70;;;20.10;41.60;;;;;;5056165;28;20518;-24
2021/12/27 05:54:50;;;;;;;0.80;0.80;;;20.20;41.60;;;;;;5056093;28;20206;-23
2021/12/27 05:57:16;;;;;;;0.83;0.83;;;20.40;41.30;;;;;;5056087;28;20259;-25
2021/12/27 05:59:41;;;;;;;0.70;0.70;;;20.80;41.10;;;;;;5056133;28;20644;-24
2021/12/27 06:02:07;;;;;;;0.87;0.80;;;21.50;40.60;;;;;;5055870;28;20203;-24
2021/12/27 06:04:33;;;;;;;0.93;0.87;;;22.40;40.10;;;;;;5055649;28;20209;-24
2021/12/27 06:06:58;;;;;;;0.70;0.70;;;23.00;38.90;;;;;;5055188;28;20238;-25
2021/12/27 06:09:24;;;;;;;0.80;0.80;;;23.30;38.50;;;;;;5055871;28;20197;-24
2021/12/27 06:11:50;;;;;;;0.80;0.80;;;23.20;38.40;;;;;;5056495;28;20229;-21
2021/12/27 06:14:15;;;;;;;1.50;0.80;;;23.00;38.40;;;;;;5059340;28;20225;-23
2021/12/27 06:16:41;;;;;;;0.80;0.80;;;23.10;38.60;;;;;;5058467;28;20201;-23
2021/12/27 06:19:07;;;;;;;0.93;0.93;;;23.40;38.30;;;;;;5058590;28;20188;-23
2021/12/27 06:21:33;;;;;;;0.70;0.70;;;23.60;38.10;;;;;;5058916;28;20209;-22
2021/12/27 06:24:00;;;;;;;0.80;0.80;;;23.70;38.00;;;;;;5058447;28;20192;-23
2021/12/27 06:26:26;;;;;;;0.80;0.70;;;23.80;37.90;;;;;;5057699;28;20195;-24
2021/12/27 06:28:53;;;;;;;0.70;0.70;;;23.70;37.90;;;;;;5058184;28;20192;-24
2021/12/27 06:31:19;;;;;;;0.97;0.97;;;23.60;38.00;;;;;;5059235;28;20278;-22
2021/12/27 06:33:46;;;;;;;0.80;0.80;;;23.50;38.10;;;;;;5059113;28;20231;-25
2021/12/27 06:36:11;;;;;;;0.80;0.80;;;23.30;38.30;;;;;;5059020;28;20246;-23
2021/12/27 06:38:37;;;;;;;0.80;0.80;;;23.10;38.50;;;;;;5059556;28;20668;-24
2021/12/27 06:41:03;;;;;;;1.23;0.70;;;23.00;38.60;;;;;;5058899;28;20596;-24
2021/12/27 06:43:32;;;;;;;1.13;0.97;;;22.70;38.80;;;;;;5059300;28;20202;-24
2021/12/27 06:46:01;;;;;;;0.80;0.80;;;22.60;39.00;;;;;;5057748;28;20203;-23
2021/12/27 06:48:27;;;;;;;0.70;0.70;;;22.30;39.30;;;;;;5058454;28;20180;-24
2021/12/27 06:50:52;;;;;;;0.70;0.70;;;22.10;39.50;;;;;;5058231;28;20204;-23
2021/12/27 06:53:18;;;;;;;0.83;0.83;;;21.90;39.70;;;;;;5058964;28;20238;-26
2021/12/27 06:55:45;;;;;;;1.03;0.70;;;21.70;40.00;;;;;;5057041;28;20252;-24
2021/12/27 06:58:12;;;;;;;0.70;0.70;;;21.50;40.20;;;;;;5058574;28;20241;-24
2021/12/27 07:00:38;;;;;;;0.80;0.80;;;21.30;40.40;;;;;;5057483;28;20248;-21
2021/12/27 07:03:04;;;;;;;0.73;0.73;;;21.10;40.60;;;;;;5058267;28;20190;-25
2021/12/27 07:05:30;;;;;;;0.90;0.80;;;20.90;40.80;;;;;;5058043;28;20206;-24
2021/12/27 07:07:56;;;;;;;0.90;0.90;;;20.80;41.00;;;;;;5058495;28;20191;-25
2021/12/27 07:10:22;;;;;;;0.83;0.83;;;20.70;41.20;;;;;;5058587;28;20252;-24
2021/12/27 07:12:49;;;;;;;10.40;1.03;;;20.60;41.20;;;;;;5057861;28;20211;-25
2021/12/27 07:15:14;;;;;;;0.80;0.80;;;20.60;41.30;;;;;;5057216;28;20213;-24
2021/12/27 07:17:41;;;;;;;0.87;0.87;;;20.60;41.30;;;;;;5057859;28;20170;-21
2021/12/27 07:20:07;;;;;;;0.83;0.83;;;20.70;41.20;;;;;;5057179;28;20587;-23
2021/12/27 07:22:34;;;;;;;0.73;0.73;;;21.10;41.10;;;;;;5057321;28;20202;-24
2021/12/27 07:25:00;;;;;;;0.60;0.60;;;21.70;40.50;;;;;;5057543;28;20197;-22
2021/12/27 07:27:26;;;;;;;0.73;0.73;;;22.50;39.80;;;;;;5057207;28;20240;-25
2021/12/27 07:29:52;;;;;;;0.80;0.80;;;23.20;39.00;;;;;;5057339;28;20444;-25
2021/12/27 07:32:18;;;;;;;0.70;0.70;;;23.60;38.50;;;;;;5056895;28;20578;-24
2021/12/27 07:34:44;;;;;;;1.00;0.90;;;23.80;38.20;;;;;;5058207;28;20609;-23
2021/12/27 07:37:09;;;;;;;0.70;0.70;;;23.90;38.00;;;;;;5056929;28;20199;-22
2021/12/27 07:39:35;;;;;;;0.70;0.70;;;24.10;38.00;;;;;;5057854;28;20204;-23
2021/12/27 07:42:02;;;;;;;0.70;0.70;;;24.20;37.70;;;;;;5057387;28;20563;-23
2021/12/27 07:44:27;;;;;;;0.80;0.80;;;24.30;37.70;;;;;;5058499;28;20196;-22
2021/12/27 07:46:53;;;;;;;0.80;0.80;;;24.20;37.70;;;;;;5058003;28;20641;-24
2021/12/27 07:49:19;;;;;;;0.67;0.67;;;24.00;37.90;;;;;;5056561;28;20204;-23
2021/12/27 07:51:45;;;;;;;0.83;0.80;;;23.90;38.00;;;;;;5056894;28;20202;-25
2021/12/27 07:54:11;;;;;;;0.60;0.60;;;23.80;38.10;;;;;;5056450;28;20327;-23
2021/12/27 07:56:37;;;;;;;0.57;0.57;;;23.70;38.20;;;;;;5056092;28;20282;-24
2021/12/27 07:59:04;;;;;;;0.70;0.70;;;23.50;38.30;;;;;;5056444;28;20212;-23
2021/12/27 08:01:35;;;;;;;0.80;0.80;;;23.30;38.50;;;;;;5056762;28;20206;-24
2021/12/27 08:04:01;;;;;;;0.87;0.80;;;23.10;38.70;;;;;;5056111;28;20210;-25
2021/12/27 08:06:27;;;;;;;0.70;0.70;;;22.90;38.90;;;;;;5056675;28;20616;-23
2021/12/27 08:08:54;;;;;;;0.80;0.80;;;22.60;39.20;;;;;;5056508;28;20199;-24
2021/12/27 08:11:20;;;;;;;0.70;0.70;;;22.40;39.40;;;;;;5056372;28;20241;-22
2021/12/27 08:13:46;;;;;;;0.80;0.80;;;22.20;39.70;;;;;;5056069;28;20213;-22
2021/12/27 08:16:14;;;;;;;0.90;0.90;;;21.90;39.90;;;;;;5056050;28;20609;-23
2021/12/27 08:18:46;;;;;;;0.70;0.70;;;21.70;40.20;;;;;;5057704;28;20227;-25
2021/12/27 08:21:13;;;;;;;0.80;0.70;;;21.50;40.50;;;;;;5056084;28;20201;-23
2021/12/27 08:23:38;;;;;;;0.80;0.70;;;21.20;40.80;;;;;;5056582;28;20217;-25
2021/12/27 08:26:04;;;;;;;0.70;0.70;;;21.10;41.10;;;;;;5056269;28;20224;-24
2021/12/27 08:28:30;;;;;;;0.80;0.70;;;20.90;41.40;;;;;;5056015;28;20217;-24
2021/12/27 08:30:56;;;;;;;0.70;0.70;;;20.80;41.50;;;;;;5056203;28;20265;-25
2021/12/27 08:33:22;;;;;;;0.70;0.67;;;20.80;41.70;;;;;;5056348;28;20224;-24
2021/12/27 08:35:48;;;;;;;0.90;0.90;;;21.00;41.60;;;;;;5055704;28;20266;-24
2021/12/27 08:38:16;;;;;;;0.50;0.50;;;21.30;41.40;;;;;;5055342;28;20290;-23
2021/12/27 08:40:41;;;;;;;0.70;0.70;;;21.70;41.10;;;;;;5056102;28;20616;-23
2021/12/27 08:43:08;;;;;;;1.70;0.80;;;22.10;40.70;;;;;;5055762;28;20237;-23
2021/12/27 08:45:34;;;;;;;0.87;0.80;;;22.50;40.30;;;;;;5055500;28;20227;-23
2021/12/27 08:48:00;;;;;;;1.50;1.10;;;22.90;39.90;;;;;;5056073;28;20296;-24
2021/12/27 08:50:26;;;;;;;4.20;1.10;;;22.50;40.30;;;;;;5055006;28;20194;-24
2021/12/27 08:52:52;;;;;;;4.03;1.33;;;21.50;41.80;;;;;;5056605;28;20510;-22
2021/12/27 08:55:18;;;;;;;3.57;1.77;;;21.10;42.80;;;;;;5055319;28;20202;-23
2021/12/27 08:57:45;;;;;;;2.50;1.40;;;20.80;43.30;;;;;;5055032;28;20206;-25
2021/12/27 09:00:15;;;;;;;1.37;1.20;;;20.70;43.50;;;;;;5055423;28;20507;-24
2021/12/27 09:02:40;;;;;;;3.63;1.10;;;20.90;43.80;;;;;;5056170;28;20309;-25
2021/12/27 09:05:07;;;;;;;2.17;1.23;;;21.60;43.20;;;;;;5055876;28;20285;-23
2021/12/27 09:07:32;;;;;;;2.07;1.20;;;22.10;42.20;;;;;;5055373;28;20228;-21
2021/12/27 09:09:58;;;;;;;3.80;1.10;;;22.00;42.10;;;;;;5055950;28;20231;-27
2021/12/27 09:12:24;;;;;;;2.47;1.20;;;22.00;42.00;;;;;;5055344;28;20207;-24
2021/12/27 09:14:50;;;;;;;9.13;1.40;;;21.80;42.00;;;;;;5054233;28;20198;-22
2021/12/27 09:17:17;;;;;;;3.17;1.10;;;21.40;42.20;;;;;;5054481;28;20202;-21
2021/12/27 09:19:43;;;;;;;2.30;1.10;;;21.20;42.50;;;;;;5054312;28;20273;-24
2021/12/27 09:22:10;;;;;;;2.30;1.10;;;20.90;42.70;;;;;;5054805;28;20229;-25
2021/12/27 09:24:36;;;;;;;3.27;1.17;;;20.70;42.90;;;;;;5055350;28;20741;-24
2021/12/27 09:27:02;;;;;;;4.50;1.30;;;20.50;43.10;;;;;;5054665;28;20241;-23
2021/12/27 09:29:28;;;;;;;5.07;1.27;;;20.30;43.30;;;;;;5055427;28;20195;-25
2021/12/27 09:31:54;;;;;;;1.43;1.10;;;20.50;43.30;;;;;;5055442;28;20195;-23
2021/12/27 09:34:21;;;;;;;2.70;1.20;;;21.00;43.00;;;;;;5055270;28;20308;-24
2021/12/27 09:36:47;;;;;;;1.67;0.90;;;21.70;42.30;;;;;;5055791;28;20184;-23
2021/12/27 09:39:13;;;;;;;4.10;1.30;;;22.40;41.40;;;;;;5055422;28;20195;-21
2021/12/27 09:41:38;;;;;;;1.50;1.20;;;23.20;40.70;;;;;;5053604;28;20206;-23
2021/12/27 09:44:05;;;;;;;1.43;1.07;;;24.00;39.90;;;;;;5054105;28;20271;-24
2021/12/27 09:46:31;;;;;;;1.97;1.00;;;24.50;39.20;;;;;;5055020;28;20206;-26
2021/12/27 09:48:59;;;;;;;1.27;1.10;;;25.00;38.70;;;;;;5058285;28;20199;-22
2021/12/27 09:51:26;;;;;;;3.03;1.00;;;25.20;38.40;;;;;;5058050;28;20196;-23
2021/12/27 09:53:53;;;;;;;4.30;1.60;;;25.20;38.40;;;;;;5058152;28;20278;-23
2021/12/27 09:56:19;;;;;;;3.30;1.10;;;25.10;38.70;;;;;;5057702;28;20295;-25
2021/12/27 09:58:44;;;;;;;6.53;1.20;;;25.00;39.00;;;;;;5058149;28;20211;-22
2021/12/27 10:01:10;;;;;;;3.77;1.03;;;25.00;39.10;;;;;;5058701;28;20195;-23
2021/12/27 10:03:54;;;;;;;3.17;1.23;;;25.00;39.10;;;;;;5058381;28;20191;-24
2021/12/27 10:06:22;;;;;;;2.90;1.20;;;24.90;39.10;;;;;;5057823;28;20258;-23
2021/12/27 10:08:50;;;;;;;3.20;1.10;;;24.80;39.30;;;;;;5057412;28;20473;-23
2021/12/27 10:11:19;;;;;;;1.27;1.17;;;24.50;39.40;;;;;;5057412;28;20261;-22
2021/12/27 10:14:02;;;;;;;2.60;1.00;;;24.20;39.70;;;;;;5057995;28;20582;-25
2021/12/27 10:16:29;;;;;;;3.17;1.20;;;23.80;40.00;;;;;;5057595;28;20248;-22
2021/12/27 10:18:58;;;;;;;2.40;1.20;;;23.50;40.30;;;;;;5058120;28;20189;-24
2021/12/27 10:21:24;;;;;;;1.67;1.07;;;23.20;40.50;;;;;;5057004;28;20601;-25
2021/12/27 10:24:04;;;;;;;2.70;1.20;;;23.00;40.80;;;;;;5057631;28;20282;-25
2021/12/27 10:26:31;;;;;;;2.17;1.20;;;22.70;41.10;;;;;;5057380;28;20198;-22
2021/12/27 10:29:09;;;;;;;1.43;1.10;;;22.50;41.30;;;;;;5057755;28;20464;-22
2021/12/27 10:32:00;;;;;;;1.03;0.93;;;22.40;41.50;;;;;;5057583;28;20409;-26
2021/12/27 10:34:36;;;;;;;2.67;1.10;;;22.00;41.80;;;;;;5056798;28;20315;-22
2021/12/27 10:37:01;;;;;;;1.20;1.10;;;21.80;42.00;;;;;;5057726;28;20273;-24
2021/12/27 10:39:52;;;;;;;2.33;1.10;;;21.70;42.30;;;;;;5057961;28;20279;-24
2021/12/27 10:42:23;;;;;;;2.93;1.17;;;21.40;42.50;;;;;;5056497;28;20327;-23
2021/12/27 10:44:53;;;;;;;1.47;1.03;;;21.20;42.70;;;;;;5051312;28;20183;-22
2021/12/27 10:47:25;;;;;;;2.40;1.00;;;21.00;43.00;;;;;;5049305;28;20460;-23
2021/12/27 10:49:52;;;;;;;3.23;1.37;;;20.80;43.30;;;;;;5049392;28;20192;-24
2021/12/27 10:52:17;;;;;;;2.80;1.07;;;21.00;43.30;;;;;;5051013;28;20198;-25
2021/12/27 10:54:43;;;;;;;2.13;0.97;;;21.30;43.00;;;;;;5067490;28;20199;-24
2021/12/27 10:57:09;;;;;;;1.23;1.03;;;21.70;42.60;;;;;;5066071;28;20195;-25
2021/12/27 10:59:35;;;;;;;4.93;1.33;;;22.30;42.10;;;;;;5050962;28;20206;-24
2021/12/27 11:02:11;;;;;;;4.53;1.20;;;22.90;41.40;;;;;;5068523;28;20470;-23
2021/12/27 11:04:38;;;;;;;4.60;1.30;;;23.60;41.00;;;;;;5050696;28;20188;-23
2021/12/27 11:07:07;;;;;;;4.13;1.30;;;24.30;40.30;;;;;;5065849;28;20202;-22
2021/12/27 11:09:34;;;;;;;6.87;1.10;;;24.60;39.70;;;;;;5052906;28;20151;-23
2021/12/27 11:12:02;;;;;;;4.80;1.10;;;24.70;39.50;;;;;;5050920;28;20532;-23
2021/12/27 11:14:28;;;;;;;2.90;1.13;;;24.50;39.50;;;;;;5050552;28;20243;-23
2021/12/27 11:16:54;;;;;;;4.23;1.53;;;24.30;39.70;;;;;;5051055;28;20227;-21
2021/12/27 11:19:20;;;;;;;3.27;1.07;;;24.20;39.80;;;;;;5050661;28;20194;-22
2021/12/27 11:21:50;;;;;;;3.00;1.10;;;24.20;39.90;;;;;;5049445;28;20266;-22
2021/12/27 11:24:18;;;;;;;2.27;1.20;;;24.10;40.30;;;;;;5050506;28;20188;-22
2021/12/27 11:26:44;;;;;;;1.30;1.00;;;24.00;40.20;;;;;;5049493;28;20208;-24
2021/12/27 11:29:20;;;;;;;2.63;1.17;;;23.70;40.30;;;;;;5050036;28;20291;-21
2021/12/27 11:31:48;;;;;;;5.90;1.40;;;23.40;40.60;;;;;;5050582;28;20187;-23
2021/12/27 11:34:16;;;;;;;4.70;1.30;;;23.00;40.90;;;;;;5049628;28;20390;-24
2021/12/27 11:36:48;;;;;;;4.63;1.20;;;22.80;41.20;;;;;;5050923;28;20206;-25
2021/12/27 11:39:22;;;;;;;2.43;1.23;;;22.50;41.50;;;;;;5049671;28;20195;-24
2021/12/27 11:42:09;;;;;;;3.00;1.20;;;22.20;41.70;;;;;;5050217;28;20203;-26
2021/12/27 11:44:53;;;;;;;3.07;1.00;;;22.00;42.10;;;;;;5050062;28;20263;-22
2021/12/27 11:47:30;;;;;;;2.53;1.10;;;21.70;42.30;;;;;;5050057;28;20203;-21
2021/12/27 11:50:02;;;;;;;2.27;1.30;;;21.50;42.60;;;;;;5049071;28;20190;-23
2021/12/27 11:52:31;;;;;;;2.10;1.10;;;21.40;43.00;;;;;;5048627;28;20206;-19
2021/12/27 11:55:06;;;;;;;8.63;1.33;;;21.00;43.50;;;;;;5050275;28;20210;-21
2021/12/27 11:57:48;;;;;;;2.90;1.10;;;20.90;43.90;;;;;;5051042;28;20590;-22
2021/12/27 12:00:17;;;;;;;3.23;1.10;;;20.70;44.00;;;;;;5049986;28;20479;-23
2021/12/27 12:02:47;;;;;;;3.70;1.00;;;20.70;44.20;;;;;;5049076;28;20196;-22
2021/12/27 12:05:34;;;;;;;2.40;0.93;;;20.60;44.30;;;;;;5050100;28;20196;-21
2021/12/27 12:08:00;;;;;;;3.63;1.47;;;20.70;44.30;;;;;;5049480;28;20175;-24
2021/12/27 12:10:26;;;;;;;1.60;1.10;;;20.80;44.30;;;;;;5048672;28;20479;-23
2021/12/27 12:13:17;;;;;;;3.00;1.20;;;21.20;44.00;;;;;;5048917;28;20211;-22
2021/12/27 12:15:58;;;;;;;2.90;1.50;;;21.70;43.60;;;;;;5051868;28;20187;-24
2021/12/27 12:18:24;;;;;;;1.97;1.20;;;22.30;42.90;;;;;;5055025;28;20732;-23
2021/12/27 12:20:49;;;;;;;3.27;1.33;;;22.70;42.30;;;;;;5053614;28;20297;-24
2021/12/27 12:23:15;;;;;;;1.47;1.20;;;22.60;42.10;;;;;;5047246;28;20199;-23
2021/12/27 12:25:41;;;;;;;2.00;1.30;;;22.40;42.10;;;;;;5049348;28;20210;-21
2021/12/27 12:28:09;;;;;;;3.03;1.27;;;22.30;42.30;;;;;;5064854;28;20710;-27
2021/12/27 12:30:41;;;;;;;1.60;1.10;;;22.10;42.50;;;;;;5047948;28;20244;-24
2021/12/27 12:33:18;;;;;;;4.10;1.30;;;21.80;42.70;;;;;;5049359;28;20219;-22
2021/12/27 12:35:54;;;;;;;3.07;1.10;;;21.50;42.90;;;;;;5049693;28;20487;-23
2021/12/27 12:38:39;;;;;;;1.20;1.00;;;21.40;43.10;;;;;;5048659;28;20251;-21
2021/12/27 12:41:15;;;;;;;1.40;1.00;;;21.50;43.20;;;;;;5064540;28;20291;-25
2021/12/27 12:43:54;;;;;;;2.90;1.07;;;22.00;42.70;;;;;;5048169;28;20209;-24
2021/12/27 12:46:44;;;;;;;1.37;1.17;;;22.50;42.10;;;;;;5048171;28;20172;-24
2021/12/27 12:49:19;;;;;;;2.53;1.30;;;23.00;41.70;;;;;;5049420;28;20198;-22
2021/12/27 12:51:52;;;;;;;3.63;1.30;;;23.30;41.20;;;;;;5049623;28;20602;-23
2021/12/27 12:54:24;;;;;;;1.40;1.13;;;23.70;40.80;;;;;;5048538;28;20681;-22